M I D A S
Marine Information and Data Acquisition System
Tripno 1885 of the Zeeleeuw from 2010-05-21 06:58:12 to 2010-05-21 13:27:16
Back to CruiseResearch ActivitiesStationsMapUnderway DataData graphs

EquipmentUnitsComment
TimeDGPSUTC
LatitudeDGPSDM.mWGS84
LongitudeDGPSDM.mWGS84
HeadingGyrodeg 
SOGDGPSknotsSpeed over ground
COGDGPSdegCourse over ground
DepthEcho soundermeters200 kHz
Missing or incorrect values are displayed as -999
Navigation data collected by the RV Zeeleeuw from 2010-05-21 06:52:44 to 2010-05-21 13:36:57
Time Latitude Longitude Heading SOG COG Depth
2010-05-21 06:53:53 51°13.677 2°55.889 112.1 4.2 291 -999
2010-05-21 06:54:53 51°13.698 2°55.789 104.9 3.6 286 -999
2010-05-21 06:55:51 51°13.706 2°55.726 83.5 0.7 283 14.7
2010-05-21 06:56:50 51°13.716 2°55.731 35 1.3 24 15
2010-05-21 06:57:52 51°13.701 2°55.724 12.8 0.5 208 -999
2010-05-21 06:58:51 51°13.747 2°55.696 338.8 5.9 336 13.8
2010-05-21 06:59:50 51°13.861 2°55.607 335.3 8.7 334 13.2
2010-05-21 07:00:49 51°13.998 2°55.519 341.7 9.1 338 13.2
2010-05-21 07:01:49 51°14.136 2°55.416 333.7 9.3 331 13.1
2010-05-21 07:02:49 51°14.287 2°55.294 336.1 10.8 330 12.9
2010-05-21 07:03:49 51°14.439 2°55.112 326 11.9 325 12.8
2010-05-21 07:04:49 51°14.619 2°54.937 328 13.2 328 13.6
2010-05-21 07:05:49 51°14.805 2°54.742 327.2 13.6 331 13.9
2010-05-21 07:06:49 51°15 2°54.562 326.3 13.5 329 11.6
2010-05-21 07:07:49 51°15.195 2°54.377 324.6 13.5 323 10.9
2010-05-21 07:08:49 51°15.367 2°54.146 316.4 13.5 318 11.6
2010-05-21 07:09:49 51°15.548 2°53.929 321.1 13.6 323 12.5
2010-05-21 07:10:49 51°15.722 2°53.704 318.9 13.5 322 13.1
2010-05-21 07:11:49 51°15.896 2°53.483 319.2 13.3 321 13.6
2010-05-21 07:12:49 51°16.071 2°53.267 319.3 13.3 322 13.9
2010-05-21 07:13:49 51°16.257 2°53.072 326.9 13.6 331 14
2010-05-21 07:14:49 51°16.454 2°52.894 328.6 13.7 331 13.9
2010-05-21 07:15:49 51°16.656 2°52.726 330.6 13.8 334 13.2
2010-05-21 07:16:49 51°16.862 2°52.567 330.4 13.8 334 12
2010-05-21 07:17:49 51°17.067 2°52.403 332.5 13.8 334 11.9
2010-05-21 07:18:49 51°17.283 2°52.276 343.9 13.9 345 12.6
2010-05-21 07:19:49 51°17.512 2°52.201 350 14.1 351 13.3
2010-05-21 07:20:49 51°17.743 2°52.142 352.6 14.1 353 13.1
2010-05-21 07:21:49 51°17.977 2°52.16 8.1 14.3 8 13.3
2010-05-21 07:22:49 51°18.212 2°52.221 9.6 14.3 10 13.3
2010-05-21 07:23:49 51°18.449 2°52.273 5.8 14.3 5 13.2
2010-05-21 07:24:49 51°18.684 2°52.303 4.8 14.1 5 14
2010-05-21 07:25:49 51°18.919 2°52.328 4.3 14.1 4 15.1
2010-05-21 07:26:49 51°19.154 2°52.352 4.2 14.2 3 15.9
2010-05-21 07:27:49 51°19.39 2°52.376 4.3 14.2 4 16.8
2010-05-21 07:28:49 51°19.627 2°52.404 4.5 14.2 4 17.5
2010-05-21 07:29:49 51°19.862 2°52.434 4 14.2 4 17.9
2010-05-21 07:30:49 51°20.097 2°52.461 4.2 14.1 4 18
2010-05-21 07:31:49 51°20.331 2°52.49 4.4 14.1 4 17.9
2010-05-21 07:32:49 51°20.565 2°52.519 4.4 14.1 4 17
2010-05-21 07:33:49 51°20.799 2°52.55 4.5 14.2 5 16.6
2010-05-21 07:34:49 51°21.033 2°52.58 4.4 14.2 5 17.2
2010-05-21 07:35:49 51°21.269 2°52.617 4.2 14.2 6 17.6
2010-05-21 07:36:49 51°21.505 2°52.655 4.4 14.3 6 19.5
2010-05-21 07:37:49 51°21.742 2°52.693 4.2 14.4 6 21.9
2010-05-21 07:38:49 51°21.981 2°52.732 4 14.4 6 24.7
2010-05-21 07:39:49 51°22.219 2°52.772 4.2 14.4 6 25.6
2010-05-21 07:40:49 51°22.457 2°52.814 4.3 14.5 7 24.4
2010-05-21 07:41:49 51°22.697 2°52.857 4.1 14.5 7 24.4
2010-05-21 07:42:49 51°22.938 2°52.9 4.7 14.6 7 24.8
2010-05-21 07:43:49 51°23.178 2°52.941 4.1 14.5 5 23.1
2010-05-21 07:44:49 51°23.42 2°52.982 4.4 14.6 6 22.1
2010-05-21 07:45:49 51°23.662 2°53.028 5.9 14.7 8 23.6
2010-05-21 07:46:49 51°23.904 2°53.085 6.4 14.8 9 21.1
2010-05-21 07:47:49 51°24.146 2°53.139 6.2 14.4 8 19.7
2010-05-21 07:48:49 51°24.383 2°53.181 6.3 14.3 6 18.5
2010-05-21 07:49:49 51°24.62 2°53.22 6.5 14.3 5 21.8
2010-05-21 07:50:49 51°24.855 2°53.262 6.7 14.3 6 18.7
2010-05-21 07:51:49 51°25.092 2°53.301 6 14.3 6 22.1
2010-05-21 07:52:49 51°25.329 2°53.339 6.5 14.3 6 23.7
2010-05-21 07:53:49 51°25.566 2°53.379 6.8 14.4 7 26.1
2010-05-21 07:54:49 51°25.806 2°53.422 5.9 14.6 6 28.4
2010-05-21 07:55:49 51°26.047 2°53.469 5.9 14.6 7 31.9
2010-05-21 07:56:49 51°26.287 2°53.514 6.3 14.5 7 33.2
2010-05-21 07:57:49 51°26.526 2°53.562 6.3 14.5 7 33.5
2010-05-21 07:58:49 51°26.766 2°53.609 6.4 14.5 7 31
2010-05-21 07:59:49 51°27.007 2°53.657 6.5 14.6 8 27.9
2010-05-21 08:00:49 51°27.248 2°53.708 6 14.6 7 26.2
2010-05-21 08:01:49 51°27.489 2°53.755 6.1 14.6 7 25.6
2010-05-21 08:02:49 51°27.73 2°53.802 6.4 14.6 6 23.1
2010-05-21 08:03:49 51°27.972 2°53.847 6.2 14.6 7 21.7
2010-05-21 08:04:49 51°28.214 2°53.892 5.9 14.6 6 20.9
2010-05-21 08:05:49 51°28.455 2°53.938 6.1 14.7 7 24.4
2010-05-21 08:06:49 51°28.697 2°53.985 6.1 14.6 7 26
2010-05-21 08:07:49 51°28.937 2°54.03 6.2 14.5 7 26.9
2010-05-21 08:08:48 51°29.172 2°54.074 6.1 14.5 6 28.6
2010-05-21 08:09:49 51°29.415 2°54.124 6.4 14.5 9 29.6
2010-05-21 08:10:49 51°29.655 2°54.178 5.8 14.5 8 31.7
2010-05-21 08:11:49 51°29.898 2°54.235 5.8 14.8 9 33.5
2010-05-21 08:12:49 51°30.141 2°54.292 6.1 14.7 7 33.2
2010-05-21 08:13:49 51°30.383 2°54.35 6.1 14.7 10 36.3
2010-05-21 08:14:49 51°30.625 2°54.407 5.9 14.7 8 32.3
2010-05-21 08:15:48 51°30.864 2°54.461 6.5 14.9 8 17.6
2010-05-21 08:16:49 51°31.111 2°54.508 6.5 14.7 7 20.6
2010-05-21 08:17:49 51°31.354 2°54.552 6.2 14.6 7 19.6
2010-05-21 08:18:48 51°31.591 2°54.596 6.6 14.6 7 20.5
2010-05-21 08:19:49 51°31.837 2°54.641 6.1 14.6 7 22.1
2010-05-21 08:20:48 51°32.074 2°54.683 6.4 14.6 6 23.1
2010-05-21 08:21:48 51°32.315 2°54.723 5.9 14.5 6 21.6
2010-05-21 08:22:48 51°32.545 2°54.757 4.8 11.4 3 24.7
2010-05-21 08:23:49 51°32.692 2°54.779 6.6 7 7 24.7
2010-05-21 08:24:48 51°32.79 2°54.802 8.1 5.3 9 25.4
2010-05-21 08:25:49 51°32.868 2°54.816 2.1 4.2 5 26.3
2010-05-21 08:26:48 51°32.928 2°54.822 358.9 3.3 3 25.8
2010-05-21 08:27:48 51°32.977 2°54.824 355.6 2.7 2 27.2
2010-05-21 08:28:47 51°33.018 2°54.826 355.7 2.3 2 25.6
2010-05-21 08:29:47 51°33.053 2°54.828 356.4 2 2 26.5
2010-05-21 08:30:49 51°33.084 2°54.83 355.9 1.7 5 26.5
2010-05-21 08:31:48 51°33.11 2°54.834 356.7 1.5 7 23.7
2010-05-21 08:32:49 51°33.135 2°54.837 355.8 1.4 3 26.4
2010-05-21 08:33:49 51°33.157 2°54.84 356.3 1.3 7 27
2010-05-21 08:34:49 51°33.177 2°54.844 359.5 1.2 8 26.6
2010-05-21 08:35:48 51°33.196 2°54.848 1.4 1.1 9 25.5
2010-05-21 08:36:48 51°33.214 2°54.853 2.5 1 11 27.1
2010-05-21 08:37:48 51°33.231 2°54.856 3 1 4 27.7
2010-05-21 08:38:49 51°33.248 2°54.859 1.5 1.4 2 27.9
2010-05-21 08:39:49 51°33.308 2°54.91 51.6 6.3 50 27.3
2010-05-21 08:40:49 51°33.318 2°55.109 104.4 9.3 98 26.8
2010-05-21 08:41:49 51°33.266 2°55.368 116.1 10.6 109 26
2010-05-21 08:42:49 51°33.204 2°55.611 113.1 7.9 107 27.6
2010-05-21 08:43:50 51°33.207 2°55.763 82.5 4.3 73 27
2010-05-21 08:44:48 51°33.221 2°55.833 104.5 1.7 71 23.8
2010-05-21 08:45:49 51°33.23 2°55.858 127.6 0.9 60 24.9
2010-05-21 08:46:50 51°33.236 2°55.876 138.7 0.7 61 25.7
2010-05-21 08:47:49 51°33.241 2°55.89 142.3 0.6 60 25.5
2010-05-21 08:48:49 51°33.246 2°55.903 141.4 0.5 59 25.8
2010-05-21 08:49:49 51°33.25 2°55.914 139.7 0.5 56 26.1
2010-05-21 08:50:49 51°33.255 2°55.925 139.9 0.4 56 26.5
2010-05-21 08:51:49 51°33.259 2°55.934 138.8 0.5 55 26.8
2010-05-21 08:52:49 51°33.263 2°55.944 134.3 0.4 53 27.3
2010-05-21 08:53:49 51°33.268 2°55.954 129.1 0.5 59 27.5
2010-05-21 08:54:48 51°33.273 2°55.965 124.5 0.5 55 27.6
2010-05-21 08:55:48 51°33.278 2°55.976 119.3 0.6 50 27.6
2010-05-21 08:56:48 51°33.285 2°55.987 114.1 0.5 49 28.3
2010-05-21 08:57:49 51°33.292 2°55.998 111.5 0.5 43 28.1
2010-05-21 08:58:48 51°33.299 2°56.01 111.5 0.6 46 28.2
2010-05-21 08:59:48 51°33.305 2°56.021 113 0.5 49 28.3
2010-05-21 09:00:49 51°33.311 2°56.032 113 0.5 50 28.4
2010-05-21 09:01:48 51°33.317 2°56.044 110.5 0.5 56 28.1
2010-05-21 09:02:48 51°33.324 2°56.055 106.6 0.6 47 27.8
2010-05-21 09:03:48 51°33.331 2°56.067 102.6 0.7 44 27.2
2010-05-21 09:04:48 51°33.339 2°56.081 101.6 0.7 42 27
2010-05-21 09:05:48 51°33.346 2°56.093 100.4 0.6 41 27.6
2010-05-21 09:06:48 51°33.354 2°56.105 99 0.6 43 27.9
2010-05-21 09:07:48 51°33.355 2°56.139 117.2 2.2 107 27.6
2010-05-21 09:08:48 51°33.319 2°56.185 168.3 3.4 169 28.1
2010-05-21 09:09:48 51°33.254 2°56.172 191.9 4.5 194 27.8
2010-05-21 09:10:48 51°33.176 2°56.134 196.8 5 198 27.1
2010-05-21 09:11:48 51°33.12 2°56.147 153.6 2.6 144 25.8
2010-05-21 09:12:48 51°33.101 2°56.196 121.8 2 101 25.2
2010-05-21 09:13:48 51°33.103 2°56.246 101.1 1.7 80 26.1
2010-05-21 09:14:48 51°33.109 2°56.285 100.6 1.4 77 26.1
2010-05-21 09:15:48 51°33.114 2°56.316 106.4 1.1 77 26.5
2010-05-21 09:16:48 51°33.118 2°56.342 109.4 0.9 75 26
2010-05-21 09:17:48 51°33.124 2°56.365 107.8 0.9 65 25.2
2010-05-21 09:18:48 51°33.131 2°56.384 106.9 0.8 56 26
2010-05-21 09:19:48 51°33.138 2°56.4 108.2 0.8 49 26.9
2010-05-21 09:20:48 51°33.145 2°56.415 109.9 0.6 51 27.2
2010-05-21 09:21:48 51°33.152 2°56.429 111.7 0.7 45 27.4
2010-05-21 09:22:48 51°33.159 2°56.441 113.2 0.6 52 27.2
2010-05-21 09:23:48 51°33.166 2°56.452 116.2 0.5 46 27.1
2010-05-21 09:24:48 51°33.172 2°56.462 118.2 0.4 47 27.2
2010-05-21 09:25:48 51°33.179 2°56.471 120.2 0.5 44 27.1
2010-05-21 09:26:48 51°33.185 2°56.479 121.5 0.4 39 27.2
2010-05-21 09:27:48 51°33.192 2°56.487 122.9 0.5 40 27.1
2010-05-21 09:28:48 51°33.198 2°56.495 123.4 0.5 35 26.7
2010-05-21 09:29:48 51°33.204 2°56.502 123.4 0.4 37 26.3
2010-05-21 09:30:48 51°33.21 2°56.509 121.1 0.4 29 26.2
2010-05-21 09:31:48 51°33.217 2°56.516 119.8 0.4 31 26.4
2010-05-21 09:32:48 51°33.224 2°56.522 118.9 0.5 31 24.4
2010-05-21 09:33:48 51°33.23 2°56.528 117.3 0.5 30 25.1
2010-05-21 09:34:48 51°33.237 2°56.533 115.9 0.4 25 25.9
2010-05-21 09:35:48 51°33.244 2°56.538 114.2 0.4 24 26.2
2010-05-21 09:36:48 51°33.25 2°56.543 113.3 0.4 16 26.5
2010-05-21 09:37:48 51°33.257 2°56.547 112.8 0.4 21 26.4
2010-05-21 09:38:48 51°33.263 2°56.55 112 0.4 19 27
2010-05-21 09:39:48 51°33.27 2°56.554 111.8 0.4 20 27.2
2010-05-21 09:40:48 51°33.276 2°56.558 112.3 0.3 27 27.5
2010-05-21 09:41:48 51°33.282 2°56.561 113.3 0.4 18 27.2
2010-05-21 09:42:49 51°33.288 2°56.564 113.7 0.3 22 26.9
2010-05-21 09:43:48 51°33.293 2°56.567 113.7 0.3 19 27.1
2010-05-21 09:44:48 51°33.299 2°56.57 114.2 0.3 24 27.1
2010-05-21 09:45:48 51°33.304 2°56.573 114.8 0.3 24 27.1
2010-05-21 09:46:48 51°33.309 2°56.576 114.8 0.3 9 27.2
2010-05-21 09:47:48 51°33.314 2°56.579 115.1 0.3 27 26.7
2010-05-21 09:48:48 51°33.319 2°56.581 116 0.3 17 27
2010-05-21 09:49:48 51°33.323 2°56.583 117.2 0.3 19 27.1
2010-05-21 09:50:48 51°33.328 2°56.586 118.6 0.2 5 27.4
2010-05-21 09:51:48 51°33.332 2°56.587 120.4 0.2 2 27.6
2010-05-21 09:52:48 51°33.334 2°56.594 124.9 0.6 103 27.2
2010-05-21 09:53:48 51°33.324 2°56.613 154.7 1.1 149 26.7
2010-05-21 09:54:49 51°33.301 2°56.615 191.7 1.5 196 26.7
2010-05-21 09:55:49 51°33.28 2°56.584 229.3 2 242 26.6
2010-05-21 09:56:48 51°33.268 2°56.53 244.7 2.5 253 26.9
2010-05-21 09:57:49 51°33.251 2°56.454 239.7 4.1 244 26.1
2010-05-21 09:58:48 51°33.173 2°56.328 211.2 8.4 211 25.3
2010-05-21 09:59:48 51°33.089 2°56.207 247.5 4.8 253 24.7
2010-05-21 10:00:48 51°33.087 2°56.112 277.8 2.8 282 25.8
2010-05-21 10:01:49 51°33.102 2°56.058 301.1 1.8 302 25.9
2010-05-21 10:02:49 51°33.118 2°56.025 312.5 1.4 311 26
2010-05-21 10:03:49 51°33.133 2°56.001 318.5 1.1 317 26
2010-05-21 10:04:49 51°33.146 2°55.982 326.3 0.9 322 25.5
2010-05-21 10:05:49 51°33.157 2°55.967 331.7 0.8 322 24.5
2010-05-21 10:06:49 51°33.167 2°55.954 336.8 0.7 319 24.5
2010-05-21 10:07:49 51°33.176 2°55.943 341.4 0.6 314 24.7
2010-05-21 10:08:49 51°33.183 2°55.932 346.5 0.6 313 24.2
2010-05-21 10:09:49 51°33.189 2°55.92 350.2 0.5 311 24.3
2010-05-21 10:10:49 51°33.195 2°55.91 351.3 0.5 296 24.1
2010-05-21 10:11:49 51°33.198 2°55.898 349.2 0.5 292 24
2010-05-21 10:12:49 51°33.201 2°55.887 344.8 0.5 287 23.4
2010-05-21 10:13:49 51°33.203 2°55.875 338.4 0.5 278 22.6
2010-05-21 10:14:49 51°33.205 2°55.864 331.6 0.4 273 21.9
2010-05-21 10:15:49 51°33.206 2°55.854 324.6 0.4 280 22.8
2010-05-21 10:16:49 51°33.207 2°55.845 318.2 0.3 278 24
2010-05-21 10:17:49 51°33.208 2°55.834 312.3 0.4 275 25.2
2010-05-21 10:18:49 51°33.209 2°55.824 305.9 0.4 268 25.6
2010-05-21 10:19:49 51°33.209 2°55.815 301.3 0.4 260 26.2
2010-05-21 10:20:49 51°33.209 2°55.806 297.5 0.3 266 26.2
2010-05-21 10:21:49 51°33.209 2°55.797 294.2 0.3 270 26.1
2010-05-21 10:22:49 51°33.209 2°55.788 291.4 0.3 271 26.5
2010-05-21 10:23:49 51°33.21 2°55.78 289 0.3 269 26.3
2010-05-21 10:24:49 51°33.21 2°55.772 287.5 0.3 272 26.1
2010-05-21 10:25:49 51°33.21 2°55.765 286 0.3 274 26.2
2010-05-21 10:26:49 51°33.208 2°55.758 283.3 0.3 263 25.9
2010-05-21 10:27:49 51°33.207 2°55.75 280.9 0.3 250 25.6
2010-05-21 10:28:48 51°33.207 2°55.742 279.1 0.3 252 25.9
2010-05-21 10:29:49 51°33.206 2°55.735 277.3 0.3 271 25.2
2010-05-21 10:30:49 51°33.204 2°55.727 274.8 0.3 251 24.8
2010-05-21 10:31:49 51°33.204 2°55.71 280.2 1.1 274 24.5
2010-05-21 10:32:48 51°33.215 2°55.67 315.1 1.9 308 24.9
2010-05-21 10:33:49 51°33.243 2°55.64 353.5 2.1 342 25.6
2010-05-21 10:34:49 51°33.277 2°55.643 31.8 2 22 26.3
2010-05-21 10:35:49 51°33.3 2°55.675 67.9 1.5 53 25.8
2010-05-21 10:36:49 51°33.31 2°55.702 76.3 1 63 21.8
2010-05-21 10:37:49 51°33.315 2°55.722 77.4 0.6 68 23.5
2010-05-21 10:38:49 51°33.32 2°55.735 75.4 0.4 70 25.4
2010-05-21 10:39:48 51°33.323 2°55.744 73 0.3 65 24.6
2010-05-21 10:40:49 51°33.325 2°55.748 69.5 0.1 46 25.3
2010-05-21 10:41:48 51°33.326 2°55.748 65.2 0.1 339 25.4
2010-05-21 10:42:48 51°33.327 2°55.746 60.5 0.2 299 25.4
2010-05-21 10:43:48 51°33.328 2°55.741 55.1 0.2 275 25.4
2010-05-21 10:44:48 51°33.328 2°55.734 50.5 0.3 268 25.3
2010-05-21 10:45:48 51°33.327 2°55.726 47.2 0.4 261 24.5
2010-05-21 10:46:48 51°33.325 2°55.715 45.6 0.5 251 24.9
2010-05-21 10:47:48 51°33.323 2°55.704 45.9 0.5 241 23.5
2010-05-21 10:48:48 51°33.32 2°55.691 47.9 0.5 246 21.3
2010-05-21 10:49:48 51°33.316 2°55.678 50.5 0.5 244 23.8
2010-05-21 10:50:48 51°33.312 2°55.664 55.3 0.6 245 25.1
2010-05-21 10:51:48 51°33.308 2°55.651 60.8 0.6 247 25.9
2010-05-21 10:52:49 51°33.307 2°55.653 73.5 1.5 72 25.8
2010-05-21 10:53:48 51°33.323 2°55.709 64.4 2.9 62 23.7
2010-05-21 10:54:47 51°33.346 2°55.772 62.2 2.7 59 25.5
2010-05-21 10:55:48 51°33.369 2°55.832 60.4 2.6 56 25.9
2010-05-21 10:56:49 51°33.395 2°55.89 58 2.7 52 24.9
2010-05-21 10:57:49 51°33.441 2°55.907 355.5 3.6 343 26
2010-05-21 10:58:49 51°33.501 2°55.784 291.9 8.5 286 26.9
2010-05-21 10:59:49 51°33.494 2°55.483 266.5 12.9 266 25.7
2010-05-21 11:00:48 51°33.449 2°55.154 244.7 13 243 26.6
2010-05-21 11:01:48 51°33.339 2°54.85 238.2 13.2 240 24.5
2010-05-21 11:02:48 51°33.226 2°54.548 238.3 13.2 238 25.9
2010-05-21 11:03:48 51°33.112 2°54.245 238.9 13.2 238 24
2010-05-21 11:04:47 51°32.971 2°53.966 228.4 13.9 229 25.2
2010-05-21 11:05:47 51°32.816 2°53.685 228.8 14 227 24.2
2010-05-21 11:06:49 51°32.62 2°53.474 201.4 13.8 203 25.3
2010-05-21 11:07:49 51°32.401 2°53.361 194.5 13.8 197 23.8
2010-05-21 11:08:49 51°32.182 2°53.249 195.9 13.7 198 23.5
2010-05-21 11:09:52 51°31.954 2°53.124 197.2 13.9 199 22.8
2010-05-21 11:10:51 51°31.74 2°53.004 197.6 13.9 199 20.2
2010-05-21 11:11:48 51°31.538 2°52.866 206 14 211 21.7
2010-05-21 11:12:49 51°31.336 2°52.67 209.9 14 213 19.9
2010-05-21 11:13:49 51°31.148 2°52.488 210.6 10.7 212 19.9
2010-05-21 11:14:49 51°31.04 2°52.419 179.4 4.5 188 20.9
2010-05-21 11:15:48 51°31.024 2°52.405 211.8 0.9 22 20.2
2010-05-21 11:16:51 51°31.042 2°52.413 207.7 1.1 12 20.8
2010-05-21 11:17:49 51°31.055 2°52.413 201.9 0.6 348 21.1
2010-05-21 11:18:49 51°31.059 2°52.405 191.7 0.4 251 21
2010-05-21 11:19:49 51°31.053 2°52.392 178.9 0.7 231 20.8
2010-05-21 11:20:49 51°31.044 2°52.38 165.7 0.6 218 20.6
2010-05-21 11:21:48 51°31.037 2°52.37 144.5 0.5 215 20.1
2010-05-21 11:22:49 51°31.03 2°52.363 119.1 0.4 208 18.9
2010-05-21 11:23:48 51°31.024 2°52.36 95.5 0.3 185 17.9
2010-05-21 11:24:49 51°31.02 2°52.362 80.9 0.3 150 17.4
2010-05-21 11:25:49 51°31.018 2°52.365 72.7 0.2 117 17.1
2010-05-21 11:26:49 51°31.016 2°52.369 65.8 0.1 109 17.2
2010-05-21 11:27:50 51°31.015 2°52.37 60.5 0.1 205 17.1
2010-05-21 11:28:49 51°31.015 2°52.368 55.5 0.1 235 16.8
2010-05-21 11:29:49 51°31.015 2°52.367 51.3 0.1 285 16.8
2010-05-21 11:30:48 51°31.016 2°52.367 49 0.1 345 16.7
2010-05-21 11:31:48 51°31.017 2°52.366 47.2 0.1 343 17.2
2010-05-21 11:32:48 51°31.017 2°52.365 46.5 -999 227 17.2
2010-05-21 11:33:49 51°31.017 2°52.365 47.3 0.1 144 17.2
2010-05-21 11:34:49 51°31.017 2°52.365 48 -999 1 17.3
2010-05-21 11:35:48 51°31.018 2°52.365 49.5 0.1 134 17.2
2010-05-21 11:36:48 51°31.018 2°52.366 49.2 -999 241 17.1
2010-05-21 11:37:49 51°31.017 2°52.366 48.1 -999 285 17.2
2010-05-21 11:38:49 51°31.017 2°52.366 47.5 0.1 181 17.1
2010-05-21 11:39:48 51°31.017 2°52.365 47.8 -999 236 17.1
2010-05-21 11:40:48 51°31.017 2°52.365 47.8 -999 201 17.1
2010-05-21 11:41:48 51°31.017 2°52.365 47.5 0.1 131 17
2010-05-21 11:42:48 51°31.018 2°52.365 47.3 -999 142 17
2010-05-21 11:43:48 51°31.018 2°52.365 46.7 0.1 198 16.7
2010-05-21 11:44:48 51°31.018 2°52.365 45.4 0.1 144 16.8
2010-05-21 11:45:48 51°31.017 2°52.365 44.1 -999 137 16.6
2010-05-21 11:46:48 51°31.018 2°52.365 44 0.1 100 16.9
2010-05-21 11:47:48 51°31.018 2°52.365 43.3 0.1 147 17.2
2010-05-21 11:48:48 51°31.018 2°52.365 43.3 0.1 160 16.9
2010-05-21 11:49:48 51°31.017 2°52.366 42.7 -999 130 16.7
2010-05-21 11:50:48 51°31.017 2°52.367 43.1 0.1 116 16.8
2010-05-21 11:51:48 51°31.017 2°52.367 44 -999 209 16.6
2010-05-21 11:52:48 51°31.017 2°52.368 44.2 -999 212 16.7
2010-05-21 11:53:48 51°31.016 2°52.368 43.7 -999 178 16.6
2010-05-21 11:54:48 51°31.016 2°52.369 42.1 -999 291 16.7
2010-05-21 11:55:48 51°31.017 2°52.369 40.7 -999 88 16.6
2010-05-21 11:56:48 51°31.016 2°52.368 39.9 -999 127 16.8
2010-05-21 11:57:48 51°31.017 2°52.368 39.7 0.1 136 16.6
2010-05-21 11:58:49 51°31.016 2°52.369 40 -999 287 16.8
2010-05-21 11:59:48 51°31.016 2°52.368 40 -999 106 16.8
2010-05-21 12:00:48 51°31.016 2°52.368 40 0.1 178 16.8
2010-05-21 12:01:48 51°31.015 2°52.369 39 0.1 117 16.5
2010-05-21 12:02:49 51°31.016 2°52.37 41.5 0.2 72 17
2010-05-21 12:03:48 51°31.016 2°52.379 56.7 0.4 105 17.9
2010-05-21 12:04:48 51°31.014 2°52.393 61.3 0.5 105 18.4
2010-05-21 12:05:48 51°31.01 2°52.404 59.6 0.4 124 18.7
2010-05-21 12:06:48 51°31.005 2°52.412 58.1 0.4 153 18.4
2010-05-21 12:07:48 51°31.002 2°52.425 63.3 1.1 93 18.9
2010-05-21 12:08:49 51°30.986 2°52.473 113.2 2.9 136 19.3
2010-05-21 12:09:48 51°30.915 2°52.533 141.3 7.5 152 19.7
2010-05-21 12:10:48 51°30.774 2°52.6 169.2 9.6 173 18.1
2010-05-21 12:11:48 51°30.594 2°52.605 172.9 11.3 176 22.9
2010-05-21 12:12:48 51°30.405 2°52.649 165.5 12 171 27
2010-05-21 12:13:48 51°30.189 2°52.713 164.8 13.7 170 29.3
2010-05-21 12:14:48 51°29.963 2°52.781 164.6 13.8 169 28.5
2010-05-21 12:15:48 51°29.737 2°52.851 165.2 13.8 170 30.6
2010-05-21 12:16:49 51°29.508 2°52.921 164.2 13.6 169 29.3
2010-05-21 12:17:48 51°29.286 2°52.988 164 13.9 170 27.5
2010-05-21 12:18:48 51°29.06 2°53.056 164 13.9 169 26.5
2010-05-21 12:19:48 51°28.833 2°53.124 164.9 14 170 25.3
2010-05-21 12:20:48 51°28.603 2°53.192 163.8 13.9 169 24.4
2010-05-21 12:21:48 51°28.376 2°53.261 164.5 13.9 169 22.9
2010-05-21 12:22:49 51°28.144 2°53.332 164.1 13.9 169 19.6
2010-05-21 12:23:49 51°27.916 2°53.386 171.4 14 177 18.8
2010-05-21 12:24:49 51°27.68 2°53.39 175.4 14.3 180 20.8
2010-05-21 12:25:48 51°27.449 2°53.393 174.3 14 179 23.8
2010-05-21 12:26:48 51°27.215 2°53.393 174.8 14 181 25.6
2010-05-21 12:27:48 51°26.979 2°53.394 174.5 14.1 179 27.8
2010-05-21 12:28:48 51°26.744 2°53.397 174 14.1 179 28.7
2010-05-21 12:29:48 51°26.51 2°53.401 174 14 179 30.5
2010-05-21 12:30:48 51°26.277 2°53.409 174.4 14 178 31.1
2010-05-21 12:31:49 51°26.041 2°53.418 175.3 14.1 178 29.2
2010-05-21 12:32:48 51°25.812 2°53.426 174.1 14 178 26.3
2010-05-21 12:33:48 51°25.579 2°53.435 174.2 14.1 179 24
2010-05-21 12:34:49 51°25.34 2°53.442 174.3 14.2 179 21.1
2010-05-21 12:35:48 51°25.108 2°53.451 174.2 14.1 179 20.6
2010-05-21 12:36:48 51°24.873 2°53.454 174.1 14.1 179 16.8
2010-05-21 12:37:47 51°24.639 2°53.454 174.5 14.2 180 18.6
2010-05-21 12:38:47 51°24.401 2°53.457 174.2 14.2 180 16.6
2010-05-21 12:39:47 51°24.163 2°53.459 174.7 14.4 180 17.7
2010-05-21 12:40:48 51°23.924 2°53.483 169.1 14.1 175 20.4
2010-05-21 12:41:49 51°23.684 2°53.515 169.1 14.3 176 20.3
2010-05-21 12:42:49 51°23.448 2°53.549 169.2 14.2 175 17.8
2010-05-21 12:43:48 51°23.215 2°53.583 169 14.3 175 20.3
2010-05-21 12:44:49 51°22.974 2°53.615 168.9 14.3 175 19.1
2010-05-21 12:45:49 51°22.736 2°53.648 169.4 14.1 175 22
2010-05-21 12:46:48 51°22.504 2°53.675 169.9 14.1 175 22.5
2010-05-21 12:47:48 51°22.272 2°53.707 168.9 14.1 174 20.2
2010-05-21 12:48:48 51°22.038 2°53.738 169.9 14.2 176 18.4
2010-05-21 12:49:48 51°21.804 2°53.748 180.8 14.2 186 17
2010-05-21 12:50:48 51°21.584 2°53.599 210.3 14.7 214 15.7
2010-05-21 12:51:49 51°21.381 2°53.371 213.1 14.6 215 15
2010-05-21 12:52:48 51°21.181 2°53.156 210.9 14.8 215 14.5
2010-05-21 12:53:48 51°20.975 2°52.941 210.6 14.8 214 14.4
2010-05-21 12:54:48 51°20.769 2°52.728 210 14.8 213 14.4
2010-05-21 12:55:48 51°20.561 2°52.517 210.2 14.7 212 14.5
2010-05-21 12:56:48 51°20.344 2°52.339 196.8 14.5 199 15.1
2010-05-21 12:57:48 51°20.109 2°52.284 175.9 14.4 183 15.3
2010-05-21 12:58:48 51°19.87 2°52.263 178.6 14.4 185 15.3
2010-05-21 12:59:48 51°19.632 2°52.227 178.9 14.3 185 14.9
2010-05-21 13:00:48 51°19.393 2°52.189 179.5 14.5 185 14.5
2010-05-21 13:01:48 51°19.153 2°52.163 175.9 14.5 183 13.7
2010-05-21 13:02:48 51°18.913 2°52.155 173.4 14.4 181 12.6
2010-05-21 13:03:48 51°18.672 2°52.144 174.2 14.6 182 11.5
2010-05-21 13:04:48 51°18.43 2°52.133 173.4 14.5 181 10.7
2010-05-21 13:05:48 51°18.188 2°52.126 173.7 14.5 181 10.4
2010-05-21 13:06:48 51°17.946 2°52.12 174 14.6 180 10.4
2010-05-21 13:07:48 51°17.703 2°52.112 174.7 14.6 181 10.4
2010-05-21 13:08:48 51°17.459 2°52.112 174 14.6 179 10.4
2010-05-21 13:09:48 51°17.217 2°52.115 174.4 14.6 179 10.4
2010-05-21 13:10:48 51°16.976 2°52.131 167.8 14.2 171 10.1
2010-05-21 13:11:48 51°16.774 2°52.288 140.6 13.3 146 10
2010-05-21 13:12:48 51°16.576 2°52.46 149.4 13.5 154 10.5
2010-05-21 13:13:48 51°16.385 2°52.613 145.7 12.4 150 11.1
2010-05-21 13:14:48 51°16.215 2°52.778 138.7 11.5 144 11.4
2010-05-21 13:15:48 51°16.075 2°52.969 129.2 10.6 138 11.3
2010-05-21 13:16:48 51°15.946 2°53.156 128.6 10.5 138 11
2010-05-21 13:17:48 51°15.816 2°53.338 134.8 10.2 143 10.6
2010-05-21 13:18:48 51°15.692 2°53.52 125.5 10.1 134 10.5
2010-05-21 13:19:48 51°15.571 2°53.713 132.2 10.5 142 10.3
2010-05-21 13:20:48 51°15.43 2°53.878 135.5 10.6 145 10
2010-05-21 13:21:48 51°15.29 2°54.046 134 10.5 141 9.7
2010-05-21 13:22:49 51°15.147 2°54.216 137.1 10.6 144 9.3
2010-05-21 13:23:48 51°15.009 2°54.383 133.7 10.5 142 8.8
2010-05-21 13:24:48 51°14.874 2°54.56 135.3 10.5 141 10.7
2010-05-21 13:25:48 51°14.732 2°54.724 138.5 10.7 145 9.2
2010-05-21 13:26:48 51°14.597 2°54.911 130.2 10.7 136 10.9
2010-05-21 13:27:48 51°14.468 2°55.108 131.6 10.8 134 9.8
2010-05-21 13:28:48 51°14.322 2°55.275 148.3 10.7 150 10
2010-05-21 13:29:48 51°14.176 2°55.383 156.8 8.8 158 10.2
2010-05-21 13:30:52 51°14.051 2°55.469 154 7.2 155 -999
2010-05-21 13:31:52 51°13.928 2°55.554 157.1 8.3 158 -999
2010-05-21 13:32:52 51°13.819 2°55.63 152.4 6.5 155 -999
2010-05-21 13:33:52 51°13.744 2°55.726 125.3 5.2 127 -999
2010-05-21 13:34:52 51°13.699 2°55.829 119.8 4.4 122 -999
2010-05-21 13:35:52 51°13.671 2°55.92 107.4 3.2 111 -999
2010-05-21 13:36:52 51°13.662 2°55.96 118.1 0.1 27 -999